Time;durP1;ratioP1;P1;durP2;ratioP2;P2;SDS_P1;SDS_P2;PMS_P1;PMS_P2;Temp;Humidity;BMP_temperature;BMP_pressure;BME280_temperature;BME280_humidity;BME280_pressure;Samples;Min_cycle;Max_cycle;Signal;HPM_P1;HPM_P2
2021/12/29 00:00:44;;;;;;;;;;;6.70;99.90;;;;;;5032863;28;19968;-66
2021/12/29 00:03:10;;;;;;;;;;;6.60;99.90;;;;;;5030990;28;20329;-66
2021/12/29 00:05:35;;;;;;;;;;;6.60;99.90;;;;;;5043812;28;19932;-65
2021/12/29 00:08:01;;;;;;;;;;;6.60;99.90;;;;;;5031490;28;19929;-65
2021/12/29 00:10:27;;;;;;;;;;;6.60;99.90;;;;;;5013295;28;19929;-64
2021/12/29 00:12:54;;;;;;;;;;;6.50;99.90;;;;;;5031362;28;20379;-65
2021/12/29 00:15:22;;;;;;;;;;;6.50;99.90;;;;;;5030345;28;20428;-66
2021/12/29 00:17:47;;;;;;;;;;;6.50;99.90;;;;;;5022691;28;20004;-66
2021/12/29 00:20:16;;;;;;;;;;;6.50;99.90;;;;;;5027133;28;20401;-64
2021/12/29 00:22:42;;;;;;;;;;;6.50;99.90;;;;;;5031269;28;19987;-64
2021/12/29 00:25:08;;;;;;;;;;;6.50;99.90;;;;;;5012681;28;20452;-66
2021/12/29 00:27:34;;;;;;;;;;;6.50;99.90;;;;;;5031317;28;20286;-66
2021/12/29 00:29:59;;;;;;;;;;;6.50;99.90;;;;;;5026055;28;19936;-66
2021/12/29 00:32:25;;;;;;;;;;;6.50;99.90;;;;;;5010570;28;19932;-65
2021/12/29 00:34:50;;;;;;;;;;;6.50;99.90;;;;;;5023357;28;20539;-66
2021/12/29 00:37:16;;;;;;;;;;;6.50;99.90;;;;;;5012583;28;19964;-67
2021/12/29 00:39:42;;;;;;;;;;;6.50;99.90;;;;;;5031159;28;19983;-66
2021/12/29 00:42:07;;;;;;;;;;;6.50;99.90;;;;;;5012776;28;19964;-65
2021/12/29 00:44:34;;;;;;;;;;;6.50;99.90;;;;;;5030042;28;20375;-67
2021/12/29 00:47:00;;;;;;;;;;;6.50;99.90;;;;;;5013103;28;19925;-65
2021/12/29 00:49:31;;;;;;;;;;;6.50;99.90;;;;;;5030133;28;19929;-65
2021/12/29 00:51:57;;;;;;;;;;;6.50;99.90;;;;;;5030403;28;20271;-67
2021/12/29 00:54:23;;;;;;;;;;;6.50;99.90;;;;;;4995502;28;19987;-66
2021/12/29 00:56:48;;;;;;;;;;;6.40;99.90;;;;;;5030124;28;19925;-66
2021/12/29 00:59:14;;;;;;;;;;;6.40;99.90;;;;;;5030327;28;20421;-65
2021/12/29 01:01:40;;;;;;;;;;;6.50;99.90;;;;;;5013036;28;19976;-65
2021/12/29 01:04:06;;;;;;;;;;;6.40;99.90;;;;;;4992871;28;19952;-66
2021/12/29 01:06:31;;;;;;;;;;;6.40;99.90;;;;;;5009423;28;19938;-67
2021/12/29 01:08:57;;;;;;;;;;;6.40;99.90;;;;;;5012045;28;19930;-68
2021/12/29 01:11:23;;;;;;;;;;;6.50;99.90;;;;;;5021372;28;20002;-66
2021/12/29 01:13:50;;;;;;;;;;;6.50;99.90;;;;;;5031634;28;19936;-66
2021/12/29 01:16:36;;;;;;;;;;;6.50;99.90;;;;;;5047263;28;20370;-67
2021/12/29 01:19:02;;;;;;;;;;;6.50;99.90;;;;;;5050224;28;19928;-66
2021/12/29 01:21:27;;;;;;;;;;;6.50;99.90;;;;;;5049279;28;19935;-66
2021/12/29 01:23:53;;;;;;;;;;;6.50;99.90;;;;;;5019406;28;20361;-66
2021/12/29 01:26:18;;;;;;;;;;;6.50;99.90;;;;;;5030124;28;19938;-66
2021/12/29 01:28:44;;;;;;;;;;;6.50;99.90;;;;;;5048341;28;19932;-66
2021/12/29 01:31:10;;;;;;;;;;;6.50;99.90;;;;;;5050194;28;20367;-67
2021/12/29 01:33:35;;;;;;;;;;;6.50;99.90;;;;;;5047089;28;20370;-66
2021/12/29 01:36:01;;;;;;;;;;;6.50;99.90;;;;;;5050413;28;19974;-65
2021/12/29 01:38:26;;;;;;;;;;;6.50;99.90;;;;;;5032203;28;19925;-65
2021/12/29 01:40:52;;;;;;;;;;;6.60;99.90;;;;;;5031720;28;19936;-65
2021/12/29 01:43:18;;;;;;;;;;;6.60;99.90;;;;;;5022846;28;20074;-73
2021/12/29 01:45:44;;;;;;;;;;;6.60;99.90;;;;;;5031879;28;19925;-68
2021/12/29 01:48:12;;;;;;;;;;;6.60;99.90;;;;;;5050234;28;19932;-66
2021/12/29 01:50:39;;;;;;;;;;;6.60;99.90;;;;;;5049740;28;20470;-65
2021/12/29 01:53:09;;;;;;;;;;;6.60;99.90;;;;;;5041572;28;20390;-66
2021/12/29 01:55:39;;;;;;;;;;;6.60;99.90;;;;;;5049607;28;19932;-66
2021/12/29 01:58:05;;;;;;;;;;;6.60;99.90;;;;;;5045180;28;20432;-66
2021/12/29 02:00:33;;;;;;;;;;;6.60;99.90;;;;;;5033685;28;20310;-66
2021/12/29 02:02:59;;;;;;;;;;;6.60;99.90;;;;;;5043715;28;19933;-66
2021/12/29 02:05:24;;;;;;;;;;;6.60;99.90;;;;;;5051618;28;20015;-65
2021/12/29 02:07:50;;;;;;;;;;;6.60;99.90;;;;;;5019528;28;19929;-65
2021/12/29 02:10:18;;;;;;;;;;;6.60;99.90;;;;;;5031205;28;19936;-64
2021/12/29 02:12:43;;;;;;;;;;;6.60;99.90;;;;;;5038617;28;19935;-64
2021/12/29 02:15:10;;;;;;;;;;;6.60;99.90;;;;;;5053454;28;20393;-66
2021/12/29 02:17:35;;;;;;;;;;;6.70;99.90;;;;;;5033881;28;20337;-66
2021/12/29 02:20:05;;;;;;;;;;;6.70;99.90;;;;;;5035931;28;19929;-65
2021/12/29 02:22:42;;;;;;;;;;;6.70;99.90;;;;;;5049351;28;19975;-65
2021/12/29 02:27:44;;;;;;;;;;;6.70;99.90;;;;;;5037746;28;19929;-65
2021/12/29 02:30:10;;;;;;;;;;;6.70;99.90;;;;;;5033491;28;19936;-66
2021/12/29 02:32:36;;;;;;;;;;;6.70;99.90;;;;;;5020367;28;19932;-66
2021/12/29 02:35:02;;;;;;;;;;;6.70;99.90;;;;;;5052539;28;19929;-66
2021/12/29 02:37:28;;;;;;;;;;;6.70;99.90;;;;;;5052816;28;19940;-65
2021/12/29 02:39:53;;;;;;;;;;;6.70;99.90;;;;;;5040646;28;20394;-65
2021/12/29 02:42:20;;;;;;;;;;;6.70;99.90;;;;;;5033725;28;19929;-65
2021/12/29 02:44:49;;;;;;;;;;;6.70;99.90;;;;;;4998813;28;19928;-65
2021/12/29 02:47:15;;;;;;;;;;;6.70;99.90;;;;;;5049529;28;20015;-65
2021/12/29 02:49:40;;;;;;;;;;;6.70;99.90;;;;;;5018001;28;20015;-65
2021/12/29 02:52:08;;;;;;;;;;;6.70;99.90;;;;;;5042660;28;19925;-65
2021/12/29 02:54:34;;;;;;;;;;;6.70;99.90;;;;;;5052333;28;19990;-65
2021/12/29 02:57:00;;;;;;;;;;;6.80;99.90;;;;;;5023391;28;19928;-65
2021/12/29 02:59:25;;;;;;;;;;;6.80;99.90;;;;;;5015218;28;19929;-66
2021/12/29 03:01:51;;;;;;;;;;;6.80;99.90;;;;;;5032395;28;20028;-65
2021/12/29 03:04:17;;;;;;;;;;;6.80;99.90;;;;;;5021004;28;19975;-66
2021/12/29 03:06:42;;;;;;;;;;;6.80;99.90;;;;;;5032247;28;19935;-65
2021/12/29 03:09:09;;;;;;;;;;;6.80;99.90;;;;;;5022998;28;19931;-65
2021/12/29 03:11:36;;;;;;;;;;;6.80;99.90;;;;;;5033006;28;19970;-65
2021/12/29 03:14:01;;;;;;;;;;;6.80;99.90;;;;;;5015101;28;20345;-66
2021/12/29 03:16:27;;;;;;;;;;;6.80;99.90;;;;;;5033584;28;19925;-68
2021/12/29 03:18:53;;;;;;;;;;;6.80;99.90;;;;;;5014269;28;19932;-65
2021/12/29 03:21:19;;;;;;;;;;;6.80;99.90;;;;;;5038625;28;20011;-65
2021/12/29 03:23:44;;;;;;;;;;;6.80;99.90;;;;;;5024312;28;19936;-65
2021/12/29 03:26:10;;;;;;;;;;;6.90;99.90;;;;;;5034605;28;19947;-66
2021/12/29 03:28:37;;;;;;;;;;;6.90;99.90;;;;;;5048860;28;19928;-65
2021/12/29 03:31:03;;;;;;;;;;;6.90;99.90;;;;;;5014617;28;19925;-65
2021/12/29 03:33:29;;;;;;;;;;;6.90;99.90;;;;;;5021408;28;19937;-65
2021/12/29 03:35:56;;;;;;;;;;;6.90;99.90;;;;;;5031244;28;20447;-66
2021/12/29 03:38:22;;;;;;;;;;;6.80;99.90;;;;;;5052102;28;19937;-66
2021/12/29 03:40:48;;;;;;;;;;;6.80;99.90;;;;;;5050905;28;19925;-66
2021/12/29 03:43:14;;;;;;;;;;;6.90;99.90;;;;;;5037457;28;20417;-66
2021/12/29 03:45:45;;;;;;;;;;;6.90;99.90;;;;;;5032150;28;20276;-65
2021/12/29 03:48:10;;;;;;;;;;;6.90;99.90;;;;;;5031997;28;19925;-66
2021/12/29 03:50:36;;;;;;;;;;;6.90;99.90;;;;;;5013826;28;20441;-76
2021/12/29 03:53:02;;;;;;;;;;;6.90;99.90;;;;;;5045248;28;19975;-66
2021/12/29 03:55:28;;;;;;;;;;;6.90;99.90;;;;;;5019104;28;19925;-67
2021/12/29 03:57:54;;;;;;;;;;;6.90;99.90;;;;;;5033361;28;19931;-65
2021/12/29 04:00:20;;;;;;;;;;;6.90;99.90;;;;;;5035529;28;20031;-65
2021/12/29 04:02:46;;;;;;;;;;;6.90;99.90;;;;;;4998367;28;19933;-66
2021/12/29 04:05:13;;;;;;;;;;;6.90;99.90;;;;;;5032775;28;20295;-67
2021/12/29 04:07:39;;;;;;;;;;;7.00;99.90;;;;;;5031617;28;19929;-72
2021/12/29 04:10:06;;;;;;;;;;;6.90;99.90;;;;;;4997674;28;20035;-65
2021/12/29 04:12:31;;;;;;;;;;;6.90;99.90;;;;;;5032059;28;19999;-65
2021/12/29 04:14:57;;;;;;;;;;;7.00;99.90;;;;;;5013391;28;19929;-65
2021/12/29 04:17:36;;;;;;;;;;;6.90;99.90;;;;;;5014050;28;20355;-65
2021/12/29 04:22:47;;;;;;;;;;;7.00;99.90;;;;;;5048581;28;19960;-67
2021/12/29 04:25:12;;;;;;;;;;;7.00;99.90;;;;;;5050017;28;20397;-65
2021/12/29 04:27:38;;;;;;;;;;;7.00;99.90;;;;;;5050160;28;19959;-65
2021/12/29 04:30:04;;;;;;;;;;;7.00;99.90;;;;;;5031779;28;19925;-65
2021/12/29 04:32:29;;;;;;;;;;;7.00;99.90;;;;;;5032623;28;19979;-65
2021/12/29 04:34:55;;;;;;;;;;;7.00;99.90;;;;;;5050523;28;19925;-65
2021/12/29 04:37:20;;;;;;;;;;;7.00;99.90;;;;;;5029392;28;19925;-65
2021/12/29 04:39:46;;;;;;;;;;;7.00;99.90;;;;;;5030655;28;20035;-66
2021/12/29 04:42:11;;;;;;;;;;;7.00;99.90;;;;;;5042265;28;20286;-68
2021/12/29 04:44:37;;;;;;;;;;;7.00;99.90;;;;;;5031611;28;19932;-65
2021/12/29 04:47:03;;;;;;;;;;;7.00;99.90;;;;;;5030673;28;19929;-65
2021/12/29 04:49:39;;;;;;;;;;;7.00;99.90;;;;;;5035075;28;19967;-65
2021/12/29 04:52:05;;;;;;;;;;;7.00;99.90;;;;;;5043066;28;19925;-65
2021/12/29 04:54:31;;;;;;;;;;;7.00;99.90;;;;;;5027412;28;19936;-65
2021/12/29 04:56:57;;;;;;;;;;;7.00;99.90;;;;;;5016232;28;20251;-65
2021/12/29 04:59:24;;;;;;;;;;;7.00;99.90;;;;;;5050700;28;19925;-65
2021/12/29 05:01:49;;;;;;;;;;;7.00;99.90;;;;;;5046250;28;20346;-65
2021/12/29 05:04:29;;;;;;;;;;;7.00;99.90;;;;;;5049197;28;19932;-64
2021/12/29 05:09:39;;;;;;;;;;;7.00;99.90;;;;;;5050702;28;20022;-65
2021/12/29 05:12:05;;;;;;;;;;;7.00;99.90;;;;;;5040152;28;19968;-65
2021/12/29 05:14:31;;;;;;;;;;;7.00;99.90;;;;;;5033080;28;19932;-64
2021/12/29 05:16:56;;;;;;;;;;;7.00;99.90;;;;;;5012796;28;19929;-64
2021/12/29 05:19:22;;;;;;;;;;;7.10;99.90;;;;;;5030668;28;20374;-64
2021/12/29 05:21:47;;;;;;;;;;;7.00;99.90;;;;;;5034023;28;19932;-64
2021/12/29 05:24:13;;;;;;;;;;;7.00;99.90;;;;;;5030773;28;20356;-66
2021/12/29 05:26:39;;;;;;;;;;;7.10;99.90;;;;;;5016262;28;19978;-65
2021/12/29 05:29:05;;;;;;;;;;;7.00;99.90;;;;;;5031171;28;19929;-65
2021/12/29 05:31:30;;;;;;;;;;;7.00;99.90;;;;;;5036681;28;19929;-65
2021/12/29 05:33:56;;;;;;;;;;;7.10;99.90;;;;;;5035788;28;19933;-64
2021/12/29 05:36:22;;;;;;;;;;;7.10;99.90;;;;;;5047897;28;19932;-69
2021/12/29 05:38:48;;;;;;;;;;;7.00;99.90;;;;;;5036440;28;20333;-65
2021/12/29 05:41:13;;;;;;;;;;;7.00;99.90;;;;;;5034117;28;19936;-65
2021/12/29 05:43:39;;;;;;;;;;;7.10;99.90;;;;;;5034085;28;19929;-65
2021/12/29 05:46:05;;;;;;;;;;;7.10;99.90;;;;;;5041894;28;20074;-65
2021/12/29 05:48:31;;;;;;;;;;;7.00;99.90;;;;;;5036282;28;19925;-65
2021/12/29 05:50:56;;;;;;;;;;;7.10;99.90;;;;;;5035776;28;19932;-66
2021/12/29 05:53:22;;;;;;;;;;;7.10;99.90;;;;;;5052548;28;19925;-66
2021/12/29 05:55:47;;;;;;;;;;;7.10;99.90;;;;;;5051106;28;19929;-66
2021/12/29 05:58:13;;;;;;;;;;;7.10;99.90;;;;;;5033414;28;20306;-66
2021/12/29 06:00:41;;;;;;;;;;;7.10;99.90;;;;;;5016445;28;19948;-65
2021/12/29 06:03:07;;;;;;;;;;;7.10;99.90;;;;;;5051837;28;19936;-65
2021/12/29 06:05:32;;;;;;;;;;;7.00;99.90;;;;;;5039018;28;20026;-65
2021/12/29 06:07:58;;;;;;;;;;;7.10;99.90;;;;;;5034544;28;19975;-66
2021/12/29 06:10:24;;;;;;;;;;;7.10;99.90;;;;;;5015735;28;19925;-65
2021/12/29 06:12:49;;;;;;;;;;;7.10;99.90;;;;;;5047095;28;19979;-65
2021/12/29 06:15:15;;;;;;;;;;;7.10;99.90;;;;;;5052943;28;20370;-65
2021/12/29 06:17:41;;;;;;;;;;;7.10;99.90;;;;;;5041657;28;19976;-65
2021/12/29 06:20:08;;;;;;;;;;;7.10;99.90;;;;;;5015595;28;20287;-65
2021/12/29 06:22:33;;;;;;;;;;;7.30;99.90;;;;;;5031812;28;19925;-65
2021/12/29 06:24:59;;;;;;;;;;;7.10;99.90;;;;;;5053070;28;19951;-74
2021/12/29 06:27:25;;;;;;;;;;;7.20;99.90;;;;;;5034147;28;19932;-64
2021/12/29 06:29:51;;;;;;;;;;;7.20;99.90;;;;;;5045143;28;19945;-67
2021/12/29 06:32:17;;;;;;;;;;;7.20;99.90;;;;;;5034016;28;19980;-65
2021/12/29 06:34:43;;;;;;;;;;;7.20;99.90;;;;;;5033372;28;19972;-64
2021/12/29 06:37:09;;;;;;;;;;;7.20;99.90;;;;;;4999156;28;19941;-64
2021/12/29 06:39:36;;;;;;;;;;;7.20;99.90;;;;;;5048519;28;19925;-64
2021/12/29 06:42:02;;;;;;;;;;;7.20;99.90;;;;;;5039156;28;19954;-74
2021/12/29 06:44:28;;;;;;;;;;;7.20;99.90;;;;;;5032750;28;20290;-66
2021/12/29 06:46:53;;;;;;;;;;;7.20;99.90;;;;;;5033156;28;19932;-66
2021/12/29 06:49:20;;;;;;;;;;;7.20;99.90;;;;;;5007867;28;19925;-64
2021/12/29 06:51:45;;;;;;;;;;;7.20;99.90;;;;;;5051971;28;19924;-65
2021/12/29 06:54:11;;;;;;;;;;;7.20;99.90;;;;;;5051889;28;19932;-65
2021/12/29 06:56:37;;;;;;;;;;;7.20;99.90;;;;;;5032263;28;19948;-65
2021/12/29 06:59:02;;;;;;;;;;;7.20;99.90;;;;;;5049308;28;19925;-64
2021/12/29 07:01:28;;;;;;;;;;;7.10;99.90;;;;;;5033451;28;19937;-64
2021/12/29 07:03:53;;;;;;;;;;;7.20;99.90;;;;;;5035017;28;19929;-65
2021/12/29 07:06:19;;;;;;;;;;;7.20;99.90;;;;;;5052466;28;19925;-64
2021/12/29 07:08:45;;;;;;;;;;;7.20;99.90;;;;;;5038955;28;19975;-65
2021/12/29 07:11:11;;;;;;;;;;;7.20;99.90;;;;;;5028374;28;20345;-64
2021/12/29 07:13:36;;;;;;;;;;;7.20;99.90;;;;;;5051928;28;20017;-64
2021/12/29 07:16:02;;;;;;;;;;;7.20;99.90;;;;;;5034323;28;19983;-64
2021/12/29 07:18:28;;;;;;;;;;;7.20;99.90;;;;;;5032496;28;19931;-65
2021/12/29 07:20:53;;;;;;;;;;;7.20;99.90;;;;;;5032810;28;19932;-64
2021/12/29 07:23:19;;;;;;;;;;;7.20;99.90;;;;;;5050134;28;20292;-66
2021/12/29 07:25:44;;;;;;;;;;;7.20;99.90;;;;;;5034624;28;19925;-65
2021/12/29 07:28:10;;;;;;;;;;;7.20;99.90;;;;;;5033748;28;19932;-65
2021/12/29 07:30:35;;;;;;;;;;;7.20;99.90;;;;;;5017373;28;20295;-65
2021/12/29 07:33:01;;;;;;;;;;;7.20;99.90;;;;;;5048239;28;19939;-65
2021/12/29 07:35:27;;;;;;;;;;;7.20;99.90;;;;;;5033409;28;19936;-65
2021/12/29 07:37:52;;;;;;;;;;;7.20;99.90;;;;;;5052274;28;19928;-64
2021/12/29 07:40:18;;;;;;;;;;;7.20;99.90;;;;;;5032899;28;19928;-68
2021/12/29 07:42:44;;;;;;;;;;;7.20;99.90;;;;;;5040796;28;20367;-65
2021/12/29 07:45:11;;;;;;;;;;;7.20;99.90;;;;;;5045287;28;19939;-65
2021/12/29 07:47:47;;;;;;;;;;;7.20;99.90;;;;;;5016383;28;19931;-65
2021/12/29 07:50:14;;;;;;;;;;;7.30;99.90;;;;;;5051267;28;19978;-65
2021/12/29 07:52:39;;;;;;;;;;;7.30;99.90;;;;;;5035061;28;19932;-65
2021/12/29 07:55:05;;;;;;;;;;;7.40;99.90;;;;;;5013321;28;19925;-64
2021/12/29 07:57:30;;;;;;;;;;;7.30;99.90;;;;;;5033035;28;19937;-64
2021/12/29 07:59:56;;;;;;;;;;;7.30;99.90;;;;;;5032548;28;19932;-64
2021/12/29 08:02:27;;;;;;;;;;;7.30;99.90;;;;;;5032226;28;19925;-65
2021/12/29 08:04:58;;;;;;;;;;;7.30;99.90;;;;;;5014691;28;19929;-67
2021/12/29 08:07:25;;;;;;;;;;;7.30;99.90;;;;;;5030756;28;20662;-67
2021/12/29 08:09:51;;;;;;;;;;;7.30;99.90;;;;;;5048317;28;20002;-65
2021/12/29 08:12:17;;;;;;;;;;;7.40;99.90;;;;;;5045935;28;19976;-65
2021/12/29 08:14:43;;;;;;;;;;;7.30;99.90;;;;;;5013457;28;19976;-64
2021/12/29 08:17:10;;;;;;;;;;;7.30;99.90;;;;;;5013692;28;19929;-66
2021/12/29 08:19:35;;;;;;;;;;;7.30;99.90;;;;;;5030141;28;20417;-66
2021/12/29 08:22:01;;;;;;;;;;;7.40;99.90;;;;;;5014845;28;19929;-65
2021/12/29 08:24:29;;;;;;;;;;;7.40;99.90;;;;;;5034511;28;19974;-65
2021/12/29 08:26:55;;;;;;;;;;;7.30;99.90;;;;;;5031096;28;19925;-67
2021/12/29 08:29:21;;;;;;;;;;;7.40;99.90;;;;;;4997330;28;19935;-66
2021/12/29 08:31:47;;;;;;;;;;;7.40;99.90;;;;;;5030393;28;19932;-65
2021/12/29 08:34:12;;;;;;;;;;;7.40;99.90;;;;;;5014099;28;20016;-65
2021/12/29 08:36:38;;;;;;;;;;;7.40;99.90;;;;;;5015253;28;20087;-66
2021/12/29 08:39:04;;;;;;;;;;;7.40;99.90;;;;;;5032137;28;19932;-66
2021/12/29 08:41:29;;;;;;;;;;;7.40;99.90;;;;;;5016052;28;20013;-67
2021/12/29 08:43:55;;;;;;;;;;;7.50;99.90;;;;;;5033039;28;19931;-67
2021/12/29 08:46:22;;;;;;;;;;;7.40;99.90;;;;;;5035460;28;19933;-73
2021/12/29 08:48:48;;;;;;;;;;;7.50;99.90;;;;;;5014180;28;20340;-66
2021/12/29 08:51:15;;;;;;;;;;;7.50;99.90;;;;;;5031921;28;20012;-66
2021/12/29 08:53:41;;;;;;;;;;;7.50;99.90;;;;;;4997325;28;19929;-66
2021/12/29 08:56:07;;;;;;;;;;;7.50;99.90;;;;;;5032193;28;19932;-67
2021/12/29 08:58:35;;;;;;;;;;;7.50;99.90;;;;;;5042273;28;20034;-66
2021/12/29 09:01:01;;;;;;;;;;;7.50;99.90;;;;;;5050293;28;19933;-65
2021/12/29 09:03:27;;;;;;;;;;;7.50;99.90;;;;;;5049763;28;19929;-65
2021/12/29 09:05:53;;;;;;;;;;;7.50;99.90;;;;;;5047895;28;19933;-65
2021/12/29 09:08:18;;;;;;;;;;;7.50;99.90;;;;;;5037522;28;20362;-66
2021/12/29 09:10:47;;;;;;;;;;;7.50;99.90;;;;;;5048898;28;20011;-65
2021/12/29 09:13:13;;;;;;;;;;;7.50;99.90;;;;;;5050447;28;19950;-65
2021/12/29 09:15:38;;;;;;;;;;;7.60;99.90;;;;;;5016918;28;19929;-63
2021/12/29 09:18:04;;;;;;;;;;;7.60;99.90;;;;;;5035834;28;19933;-65
2021/12/29 09:20:33;;;;;;;;;;;7.60;99.90;;;;;;5036034;28;19925;-65
2021/12/29 09:23:05;;;;;;;;;;;7.60;99.90;;;;;;5050355;28;19932;-66
2021/12/29 09:25:31;;;;;;;;;;;7.60;99.90;;;;;;5049840;28;20383;-66
2021/12/29 09:27:57;;;;;;;;;;;7.60;99.90;;;;;;5039726;28;20039;-65
2021/12/29 09:30:24;;;;;;;;;;;7.60;99.90;;;;;;5030096;28;20311;-66
2021/12/29 09:32:52;;;;;;;;;;;7.60;99.90;;;;;;5036133;28;20424;-65
2021/12/29 09:35:20;;;;;;;;;;;7.60;99.90;;;;;;5031532;28;19982;-65
2021/12/29 09:37:46;;;;;;;;;;;7.70;99.90;;;;;;5045770;28;19925;-65
2021/12/29 09:40:12;;;;;;;;;;;7.60;99.90;;;;;;5027594;28;20398;-64
2021/12/29 09:42:38;;;;;;;;;;;7.70;99.90;;;;;;5020774;28;19925;-65
2021/12/29 09:45:04;;;;;;;;;;;7.70;99.90;;;;;;5012730;28;20386;-64
2021/12/29 09:47:30;;;;;;;;;;;7.70;99.90;;;;;;5029704;28;20299;-65
2021/12/29 09:49:55;;;;;;;;;;;7.70;99.90;;;;;;5030769;28;19925;-65
2021/12/29 09:52:21;;;;;;;;;;;7.70;99.90;;;;;;5057965;28;19939;-66
2021/12/29 09:54:47;;;;;;;;;;;7.70;99.90;;;;;;5049731;28;19928;-65
2021/12/29 09:57:13;;;;;;;;;;;7.80;99.90;;;;;;5016066;28;19936;-65
2021/12/29 09:59:38;;;;;;;;;;;7.80;99.90;;;;;;5047688;28;19994;-65
2021/12/29 10:02:04;;;;;;;;;;;7.80;99.90;;;;;;5032108;28;20027;-64
2021/12/29 10:04:34;;;;;;;;;;;7.80;99.90;;;;;;5029693;28;20423;-71
2021/12/29 10:07:18;;;;;;;;;;;7.80;99.90;;;;;;5048926;28;19929;-64
2021/12/29 10:09:43;;;;;;;;;;;7.80;99.90;;;;;;5042625;28;20410;-64
2021/12/29 10:12:10;;;;;;;;;;;7.80;99.90;;;;;;4996645;28;19925;-65
2021/12/29 10:14:36;;;;;;;;;;;7.90;99.90;;;;;;5040476;28;19933;-66
2021/12/29 10:17:09;;;;;;;;;;;7.90;99.90;;;;;;5045187;28;20005;-65
2021/12/29 10:19:36;;;;;;;;;;;7.90;99.90;;;;;;5009691;28;20287;-65
2021/12/29 10:22:02;;;;;;;;;;;7.90;99.90;;;;;;5017605;28;19932;-67
2021/12/29 10:24:28;;;;;;;;;;;8.00;99.90;;;;;;5023933;28;19929;-65
2021/12/29 10:26:55;;;;;;;;;;;8.00;99.90;;;;;;5033881;28;19929;-64
2021/12/29 10:29:21;;;;;;;;;;;8.00;99.90;;;;;;5040779;28;20333;-65
2021/12/29 10:31:51;;;;;;;;;;;8.00;99.90;;;;;;5032892;28;20011;-65
2021/12/29 10:34:18;;;;;;;;;;;8.00;99.90;;;;;;5033426;28;19928;-68
2021/12/29 10:36:54;;;;;;;;;;;8.00;99.90;;;;;;5032569;28;19924;-65
2021/12/29 10:39:23;;;;;;;;;;;8.00;99.90;;;;;;5030367;28;19936;-66
2021/12/29 10:41:56;;;;;;;;;;;8.00;99.90;;;;;;5010178;28;20301;-64
2021/12/29 10:44:32;;;;;;;;;;;8.10;99.90;;;;;;5048081;28;19929;-67
2021/12/29 10:46:59;;;;;;;;;;;8.10;99.90;;;;;;5048903;28;19929;-65
2021/12/29 10:49:25;;;;;;;;;;;8.10;99.90;;;;;;5030150;28;19929;-67
2021/12/29 10:51:51;;;;;;;;;;;8.10;99.90;;;;;;5040888;28;19956;-66
2021/12/29 10:54:24;;;;;;;;;;;8.10;99.90;;;;;;5046538;28;19933;-66
2021/12/29 10:57:09;;;;;;;;;;;8.10;99.90;;;;;;5052441;28;19931;-65
2021/12/29 10:59:38;;;;;;;;;;;8.10;99.90;;;;;;5029272;28;20310;-64
2021/12/29 11:02:05;;;;;;;;;;;8.20;99.90;;;;;;5015431;28;20297;-63
2021/12/29 11:04:30;;;;;;;;;;;8.20;99.90;;;;;;5033533;28;19935;-63
2021/12/29 11:06:56;;;;;;;;;;;8.20;99.90;;;;;;5032153;28;19925;-65
2021/12/29 11:09:24;;;;;;;;;;;8.20;99.90;;;;;;5042594;28;19925;-65
2021/12/29 11:11:49;;;;;;;;;;;8.20;99.90;;;;;;5031548;28;20437;-65
2021/12/29 11:14:17;;;;;;;;;;;8.20;99.90;;;;;;5045106;28;19929;-65
2021/12/29 11:16:44;;;;;;;;;;;8.20;99.90;;;;;;5037698;28;19929;-64
2021/12/29 11:19:10;;;;;;;;;;;8.20;99.90;;;;;;5044471;28;19928;-64
2021/12/29 11:21:44;;;;;;;;;;;8.30;99.90;;;;;;5050625;28;19936;-64
2021/12/29 11:24:11;;;;;;;;;;;8.20;99.90;;;;;;5023024;28;19929;-65
2021/12/29 11:26:37;;;;;;;;;;;8.30;99.90;;;;;;5033478;28;20379;-66
2021/12/29 11:29:04;;;;;;;;;;;8.20;99.90;;;;;;5026351;28;20024;-68
2021/12/29 11:31:59;;;;;;;;;;;8.20;99.90;;;;;;5015427;28;19970;-69
2021/12/29 11:34:27;;;;;;;;;;;8.20;99.90;;;;;;5028772;28;19925;-66
2021/12/29 11:37:12;;;;;;;;;;;8.30;99.90;;;;;;5021468;28;20465;-65
2021/12/29 11:39:39;;;;;;;;;;;8.20;99.90;;;;;;5038743;28;20335;-66
2021/12/29 11:42:05;;;;;;;;;;;8.20;99.90;;;;;;5016506;28;19929;-66
2021/12/29 11:44:31;;;;;;;;;;;8.20;99.90;;;;;;5039267;28;19929;-64
2021/12/29 11:46:56;;;;;;;;;;;8.20;99.90;;;;;;5037130;28;19980;-67
2021/12/29 11:49:22;;;;;;;;;;;8.20;99.90;;;;;;5038326;28;20003;-64
2021/12/29 11:51:55;;;;;;;;;;;8.30;99.90;;;;;;5024878;28;19948;-66
2021/12/29 11:54:41;;;;;;;;;;;8.30;99.90;;;;;;5042637;28;19929;-65
2021/12/29 11:57:11;;;;;;;;;;;8.30;99.90;;;;;;4989929;28;20371;-66
2021/12/29 11:59:36;;;;;;;;;;;8.30;99.90;;;;;;5026196;28;19928;-65
2021/12/29 12:02:02;;;;;;;;;;;8.30;99.90;;;;;;5040328;28;19925;-66
2021/12/29 12:04:28;;;;;;;;;;;8.30;99.90;;;;;;5042620;28;20294;-65
2021/12/29 12:07:08;;;;;;;;;;;8.30;99.90;;;;;;5041790;28;19936;-66
2021/12/29 12:09:47;;;;;;;;;;;8.30;99.90;;;;;;5040598;28;19990;-66
2021/12/29 12:12:13;;;;;;;;;;;8.40;99.90;;;;;;5020836;28;19925;-69
2021/12/29 12:14:47;;;;;;;;;;;8.30;99.90;;;;;;5039771;28;19925;-67
2021/12/29 12:17:14;;;;;;;;;;;8.40;99.90;;;;;;5039747;28;19931;-67
2021/12/29 12:19:40;;;;;;;;;;;8.40;99.90;;;;;;5009807;28;20015;-64
2021/12/29 12:22:12;;;;;;;;;;;8.40;99.90;;;;;;5039665;28;20028;-64
2021/12/29 12:24:39;;;;;;;;;;;8.40;99.90;;;;;;5039226;28;20315;-63
2021/12/29 12:27:07;;;;;;;;;;;8.40;99.90;;;;;;5024568;28;20375;-64
2021/12/29 12:29:38;;;;;;;;;;;8.50;99.90;;;;;;5035365;28;20393;-65
2021/12/29 12:32:04;;;;;;;;;;;8.50;99.90;;;;;;5038564;28;19925;-65
2021/12/29 12:34:30;;;;;;;;;;;8.50;99.90;;;;;;5040787;28;19971;-66
2021/12/29 12:36:56;;;;;;;;;;;8.50;99.90;;;;;;5037041;28;20082;-64
2021/12/29 12:39:22;;;;;;;;;;;8.50;99.90;;;;;;5008161;28;19937;-66
2021/12/29 12:41:49;;;;;;;;;;;8.50;99.90;;;;;;5037297;28;19968;-64
2021/12/29 12:44:17;;;;;;;;;;;8.50;99.90;;;;;;5022892;28;19925;-65
2021/12/29 12:46:44;;;;;;;;;;;8.50;99.90;;;;;;5043760;28;19931;-65
2021/12/29 12:49:13;;;;;;;;;;;8.50;99.90;;;;;;5047004;28;20364;-65
2021/12/29 12:51:39;;;;;;;;;;;8.50;99.90;;;;;;5037933;28;19932;-65
2021/12/29 12:54:20;;;;;;;;;;;8.50;99.90;;;;;;5021801;28;19933;-65
2021/12/29 12:56:46;;;;;;;;;;;8.40;99.90;;;;;;5023534;28;20439;-66
2021/12/29 12:59:13;;;;;;;;;;;8.50;99.90;;;;;;5039059;28;19929;-64
2021/12/29 13:01:45;;;;;;;;;;;8.50;99.90;;;;;;5040151;28;19928;-65
2021/12/29 13:04:12;;;;;;;;;;;8.50;99.90;;;;;;5041394;28;20417;-64
2021/12/29 13:06:37;;;;;;;;;;;8.50;99.90;;;;;;5039940;28;20453;-64
2021/12/29 13:09:04;;;;;;;;;;;8.50;99.90;;;;;;5023423;28;20020;-65
2021/12/29 13:11:35;;;;;;;;;;;8.40;99.90;;;;;;5005337;28;20268;-65
2021/12/29 13:14:02;;;;;;;;;;;8.50;99.90;;;;;;5040880;28;19925;-66
2021/12/29 13:16:28;;;;;;;;;;;8.40;99.90;;;;;;5038307;28;19925;-66
2021/12/29 13:18:56;;;;;;;;;;;8.40;99.90;;;;;;5040632;28;20012;-66
2021/12/29 13:21:26;;;;;;;;;;;8.40;99.90;;;;;;5039365;28;20031;-65
2021/12/29 13:23:58;;;;;;;;;;;8.40;99.90;;;;;;5013467;28;20113;-66
2021/12/29 13:26:24;;;;;;;;;;;8.40;99.90;;;;;;5037691;28;19955;-65
2021/12/29 13:28:50;;;;;;;;;;;8.40;99.90;;;;;;5019939;28;19925;-66
2021/12/29 13:31:20;;;;;;;;;;;8.40;99.90;;;;;;5040819;28;19925;-65
2021/12/29 13:33:47;;;;;;;;;;;8.40;99.90;;;;;;5039891;28;20309;-65
2021/12/29 13:36:14;;;;;;;;;;;8.40;99.90;;;;;;5041483;28;19929;-66
2021/12/29 13:38:40;;;;;;;;;;;8.40;99.90;;;;;;5035539;28;19924;-65
2021/12/29 13:41:13;;;;;;;;;;;8.40;99.90;;;;;;5039139;28;19933;-66
2021/12/29 13:43:40;;;;;;;;;;;8.40;99.90;;;;;;5039936;28;19965;-67
2021/12/29 13:46:26;;;;;;;;;;;8.40;99.90;;;;;;5038702;28;19999;-66
2021/12/29 13:48:53;;;;;;;;;;;8.40;99.90;;;;;;5033508;28;19932;-67
2021/12/29 13:51:21;;;;;;;;;;;8.40;99.90;;;;;;5021590;28;19929;-66
2021/12/29 13:53:54;;;;;;;;;;;8.40;99.90;;;;;;5008802;28;19925;-67
2021/12/29 13:56:21;;;;;;;;;;;8.40;99.90;;;;;;5013176;28;19935;-70
2021/12/29 13:59:06;;;;;;;;;;;8.40;99.90;;;;;;5026542;28;19924;-65
2021/12/29 14:01:34;;;;;;;;;;;8.40;99.90;;;;;;5022876;28;20286;-66
2021/12/29 14:03:59;;;;;;;;;;;8.30;99.90;;;;;;5026575;28;19937;-66
2021/12/29 14:06:25;;;;;;;;;;;8.30;99.90;;;;;;5048107;28;19932;-65
2021/12/29 14:08:51;;;;;;;;;;;8.30;99.90;;;;;;5042388;28;20405;-65
2021/12/29 14:11:17;;;;;;;;;;;8.30;99.90;;;;;;5040402;28;19929;-65
2021/12/29 14:13:49;;;;;;;;;;;8.30;99.90;;;;;;5044280;28;20385;-65
2021/12/29 14:16:16;;;;;;;;;;;8.30;99.90;;;;;;5025018;28;20006;-66
2021/12/29 14:18:53;;;;;;;;;;;8.30;99.90;;;;;;5039316;28;19955;-66
2021/12/29 14:21:23;;;;;;;;;;;8.30;99.90;;;;;;5024679;28;19935;-66
2021/12/29 14:23:56;;;;;;;;;;;8.30;99.90;;;;;;5046137;28;19937;-66
2021/12/29 14:33:41;;;;;;;10.73;4.50;;;8.20;99.90;;;;;;5126413;27;20447;-66
2021/12/29 14:36:09;;;;;;;14.55;5.38;;;8.20;99.90;;;;;;5112353;27;20052;-68
2021/12/29 14:38:36;;;;;;;14.25;5.47;;;8.20;99.90;;;;;;5111998;28;20047;-67
2021/12/29 14:41:03;;;;;;;14.18;5.88;;;8.20;99.90;;;;;;5108528;28;20064;-66
2021/12/29 14:43:29;;;;;;;15.93;6.50;;;8.20;99.90;;;;;;5107210;28;20337;-66